Boa Nova, Brazil
Current Conditions -  °F | °C
As of 6:00 AM on Thursday 18 Dec 2014 (Local Time) from SBQV Reporting Station
Moderate Rain Moderate Rain  
Wind Chill: 68°   Ceiling: 500
Heat Index: 68°   Visibility: 1.2mi
Dew Point: 68°   Wind: 5mph
Humidity: 100%   Direction: 80°E
Pressure: 30"   Gusts: NA
Location:  14.36°S, 40.21°W
Report Text: SBQV 180900Z 08004KT 2000 RA BR BKN005 OVC070 20/20 Q1016
Loading
Personal Weather Stations






























Interactive Weather Map New forecast layout! Learn more

10-Day Weather Forecast

Advertisements
Track Severe Weather on mobile